Time;durP1;ratioP1;P1;durP2;ratioP2;P2;SDS_P1;SDS_P2;PMS_P1;PMS_P2;Temp;Humidity;BMP_temperature;BMP_pressure;BME280_temperature;BME280_humidity;BME280_pressure;Samples;Min_cycle;Max_cycle;Signal;HPM_P1;HPM_P2
2022/11/26 00:00:43;;;;;;;9.30;4.22;;;;;;;4.11;100.00;102615.03;6280550;22;20016;-77
2022/11/26 00:03:10;;;;;;;15.38;5.57;;;;;;;4.11;100.00;102620.28;6279535;22;20127;-77
2022/11/26 00:05:38;;;;;;;9.40;4.55;;;;;;;4.08;100.00;102621.75;6280021;22;20080;-77
2022/11/26 00:08:15;;;;;;;9.75;4.63;;;;;;;4.06;100.00;102626.59;6279860;22;20083;-77
2022/11/26 00:10:42;;;;;;;12.10;4.78;;;;;;;4.03;100.00;102630.69;6280595;22;20074;-77
2022/11/26 00:13:15;;;;;;;18.25;4.68;;;;;;;4.03;100.00;102630.69;6279681;22;20016;-77
2022/11/26 00:15:42;;;;;;;18.42;4.47;;;;;;;4.02;100.00;102628.41;6280476;22;20027;-77
2022/11/26 00:18:08;;;;;;;13.27;5.00;;;;;;;4.00;100.00;102628.00;6279834;22;20099;-76
2022/11/26 00:20:35;;;;;;;13.82;4.93;;;;;;;3.98;100.00;102625.75;6279905;22;20501;-77
2022/11/26 00:23:03;;;;;;;13.00;4.90;;;;;;;3.98;100.00;102624.97;6279802;22;20074;-77
2022/11/26 00:25:38;;;;;;;12.05;4.38;;;;;;;3.97;100.00;102624.22;6280338;22;20104;-77
2022/11/26 00:28:25;;;;;;;18.17;4.68;;;;;;;3.96;100.00;102627.97;6279764;22;20492;-77
2022/11/26 00:30:52;;;;;;;11.00;4.78;;;;;;;3.95;100.00;102625.66;6280370;22;20084;-76
2022/11/26 00:33:19;;;;;;;13.32;5.00;;;;;;;3.93;100.00;102619.97;6279780;22;20080;-76
2022/11/26 00:35:55;;;;;;;9.68;4.90;;;;;;;3.91;100.00;102617.69;6279642;22;20024;-76
2022/11/26 00:38:22;;;;;;;11.40;4.30;;;;;;;3.88;100.00;102621.03;6280162;22;20016;-76
2022/11/26 00:40:49;;;;;;;12.45;4.60;;;;;;;3.87;100.00;102624.00;6279903;22;20038;-77
2022/11/26 00:43:17;;;;;;;8.55;4.45;;;;;;;3.85;100.00;102632.25;6252846;22;20036;-76
2022/11/26 00:45:44;;;;;;;9.65;4.88;;;;;;;3.86;100.00;102631.16;6280342;22;20112;-76
2022/11/26 00:48:11;;;;;;;10.15;4.30;;;;;;;3.82;100.00;102632.94;6279288;22;20070;-76
2022/11/26 00:50:41;;;;;;;9.40;4.30;;;;;;;3.82;100.00;102634.81;6279630;22;20043;-76
2022/11/26 00:53:12;;;;;;;14.55;4.57;;;;;;;3.79;100.00;102638.91;6279397;22;20090;-76
2022/11/26 00:55:42;;;;;;;16.83;4.57;;;;;;;3.74;100.00;102636.53;6280063;22;20028;-77
2022/11/26 00:58:20;;;;;;;12.18;4.30;;;;;;;3.71;100.00;102637.22;6279363;22;20403;-76
2022/11/26 01:00:47;;;;;;;9.90;4.80;;;;;;;3.71;100.00;102639.09;6280248;22;20016;-76
2022/11/26 01:03:14;;;;;;;16.23;4.50;;;;;;;3.69;100.00;102644.72;6278587;22;20015;-76
2022/11/26 01:05:40;;;;;;;9.77;4.35;;;;;;;3.69;100.00;102648.09;6279941;22;20016;-76
2022/11/26 01:08:22;;;;;;;15.20;4.72;;;;;;;3.67;100.00;102647.69;6251969;22;20027;-77
2022/11/26 01:10:49;;;;;;;7.18;4.28;;;;;;;3.66;100.00;102650.66;6280128;22;20047;-76
2022/11/26 01:13:15;;;;;;;13.20;5.43;;;;;;;3.64;100.00;102647.63;6279394;22;20091;-76
2022/11/26 01:15:42;;;;;;;6.32;4.18;;;;;;;3.61;100.00;102648.31;6279755;22;20501;-76
2022/11/26 01:18:12;;;;;;;9.65;4.60;;;;;;;3.60;100.00;102652.81;6278495;22;20080;-76
2022/11/26 01:20:40;;;;;;;9.43;4.38;;;;;;;3.58;100.00;102643.75;6279876;22;20442;-76
2022/11/26 01:23:09;;;;;;;7.05;4.40;;;;;;;3.55;100.00;102645.19;6279240;22;20031;-76
2022/11/26 01:25:35;;;;;;;11.60;4.85;;;;;;;3.53;100.00;102638.75;6279721;22;20099;-76
2022/11/26 01:28:02;;;;;;;6.15;4.20;;;;;;;3.50;100.00;102640.19;6278864;22;20016;-76
2022/11/26 01:30:30;;;;;;;6.22;4.03;;;;;;;3.51;100.00;102644.38;6279745;22;20012;-76
2022/11/26 01:32:59;;;;;;;10.10;4.75;;;;;;;3.49;100.00;102646.56;6278621;22;20016;-78
2022/11/26 01:35:27;;;;;;;12.55;4.53;;;;;;;3.46;100.00;102647.25;6279284;22;20031;-76
2022/11/26 01:37:54;;;;;;;10.50;4.85;;;;;;;3.46;100.00;102643.88;6279562;22;20457;-77
2022/11/26 01:40:53;;;;;;;9.88;4.32;;;;;;;3.43;100.00;102647.94;6279181;22;20498;-76
2022/11/26 01:43:31;;;;;;;11.00;4.63;;;;;;;3.43;100.00;102647.19;6279271;22;20016;-76
2022/11/26 01:45:57;;;;;;;12.63;5.20;;;;;;;3.42;100.00;102653.56;6280848;22;20028;-76
2022/11/26 01:48:33;;;;;;;11.57;5.00;;;;;;;3.42;100.00;102653.56;6252770;22;20047;-76
2022/11/26 01:51:10;;;;;;;10.70;5.25;;;;;;;3.41;100.00;102658.06;6280994;22;20473;-76
2022/11/26 01:53:46;;;;;;;13.38;5.40;;;;;;;3.41;100.00;102665.97;6281215;22;20022;-76
2022/11/26 01:56:21;;;;;;;9.20;4.75;;;;;;;3.42;100.00;102661.44;6253336;22;20024;-76
2022/11/26 01:58:55;;;;;;;9.52;5.03;;;;;;;3.41;100.00;102660.69;6281431;22;20087;-76
2022/11/26 02:01:22;;;;;;;9.82;4.97;;;;;;;3.40;100.00;102658.41;6280410;22;20016;-76
2022/11/26 02:04:09;;;;;;;11.65;4.90;;;;;;;3.37;100.00;102659.09;6281394;22;20013;-76
2022/11/26 02:06:36;;;;;;;12.15;5.50;;;;;;;3.32;100.00;102662.75;6281282;22;20027;-76
2022/11/26 02:09:06;;;;;;;10.43;5.00;;;;;;;3.29;100.00;102663.41;6280601;22;20019;-76
2022/11/26 02:11:33;;;;;;;13.65;5.15;;;;;;;3.27;100.00;102665.63;6280721;22;20086;-76
2022/11/26 02:14:03;;;;;;;9.30;4.72;;;;;;;3.24;100.00;102671.56;6280603;22;20012;-76
2022/11/26 02:16:45;;;;;;;8.00;4.70;;;;;;;3.24;100.00;102672.34;6280532;22;20022;-76
2022/11/26 02:19:11;;;;;;;;;;;;;;;3.25;100.00;102681.00;6253968;22;20016;-76
2022/11/26 02:21:45;;;;;;;6.55;4.60;;;;;;;3.23;100.00;102685.84;6281362;22;19919;-76
2022/11/26 02:24:33;;;;;;;12.05;4.95;;;;;;;3.20;100.00;102682.03;6280538;22;20016;-76
2022/11/26 02:27:24;;;;;;;7.85;5.15;;;;;;;3.20;100.00;102681.28;6280522;22;20020;-77
2022/11/26 02:30:11;;;;;;;7.97;4.87;;;;;;;3.15;100.00;102692.84;6280624;22;20428;-77
2022/11/26 02:33:02;;;;;;;8.32;5.13;;;;;;;3.13;100.00;102689.00;6280561;22;20012;-77
2022/11/26 02:35:51;;;;;;;10.70;5.40;;;;;;;3.11;100.00;102699.88;6280958;22;20044;-77
2022/11/26 02:38:21;;;;;;;9.52;5.53;;;;;;;3.09;100.00;102694.19;6281036;22;20016;-77
2022/11/26 02:40:48;;;;;;;14.45;5.53;;;;;;;3.06;100.00;102691.47;6280955;22;20016;-77
2022/11/26 02:43:15;;;;;;;12.35;6.30;;;;;;;3.05;100.00;102687.31;6280479;22;20012;-77
2022/11/26 02:45:47;;;;;;;13.98;5.28;;;;;;;3.01;100.00;102682.72;6280267;22;20016;-77
2022/11/26 02:48:22;;;;;;;12.02;5.88;;;;;;;3.03;100.00;102682.38;6280287;22;20074;-77
2022/11/26 02:50:55;;;;;;;11.13;5.70;;;;;;;3.04;100.00;102683.16;6281121;22;20022;-77
2022/11/26 02:53:25;;;;;;;13.98;6.63;;;;;;;3.03;100.00;102686.88;6280733;22;20015;-76
2022/11/26 02:56:04;;;;;;;16.95;6.15;;;;;;;3.02;100.00;102688.75;6280227;22;20405;-77
2022/11/26 02:58:32;;;;;;;13.45;6.15;;;;;;;3.01;100.00;102695.13;6253312;22;20041;-77
2022/11/26 03:01:02;;;;;;;10.60;6.05;;;;;;;2.99;100.00;102698.09;6279650;22;20012;-77
2022/11/26 03:03:33;;;;;;;10.70;6.28;;;;;;;2.97;100.00;102700.28;6280821;22;20013;-77
2022/11/26 03:06:02;;;;;;;;;;;;;;;2.98;100.00;102699.19;6280984;22;20012;-76
2022/11/26 03:08:30;;;;;;;10.70;5.93;;;;;;;2.97;100.00;102708.19;6281032;22;20404;-77
2022/11/26 03:10:57;;;;;;;13.80;5.88;;;;;;;2.98;100.00;102701.06;6279987;22;20016;-77
2022/11/26 03:13:24;;;;;;;12.68;7.13;;;;;;;2.96;100.00;102704.03;6280386;22;20496;-76
2022/11/26 03:15:51;;;;;;;11.13;6.05;;;;;;;2.95;100.00;102699.09;6279492;22;20055;-77
2022/11/26 03:18:17;;;;;;;10.65;6.05;;;;;;;2.95;100.00;102707.00;6280274;22;20158;-77
2022/11/26 03:20:44;;;;;;;14.20;6.25;;;;;;;2.94;100.00;102711.50;6253165;22;20103;-76
2022/11/26 03:23:10;;;;;;;13.40;6.45;;;;;;;2.94;100.00;102714.13;6279933;22;20016;-76
2022/11/26 03:25:37;;;;;;;7.35;6.05;;;;;;;2.95;100.00;102712.25;6280336;22;20094;-76
2022/11/26 03:28:04;;;;;;;13.05;6.85;;;;;;;2.94;100.00;102716.75;6279739;22;20095;-76
2022/11/26 03:30:30;;;;;;;10.32;6.60;;;;;;;2.94;100.00;102716.75;6279999;22;20016;-77
2022/11/26 03:32:57;;;;;;;9.95;6.40;;;;;;;2.91;100.00;102722.69;6280232;22;20027;-76
2022/11/26 03:35:24;;;;;;;16.98;7.03;;;;;;;2.92;100.00;102723.47;6280004;22;20082;-76
2022/11/26 03:37:50;;;;;;;10.85;6.18;;;;;;;2.92;100.00;102724.22;6280299;22;20016;-77
2022/11/26 03:40:17;;;;;;;10.70;6.38;;;;;;;2.93;100.00;102730.25;6279927;22;20461;-76
2022/11/26 03:42:44;;;;;;;10.73;6.40;;;;;;;2.93;100.00;102720.50;6279482;22;20078;-76
2022/11/26 03:45:11;;;;;;;9.00;6.10;;;;;;;2.95;100.00;102714.88;6279592;22;20059;-76
2022/11/26 03:47:38;;;;;;;11.75;6.20;;;;;;;2.95;100.00;102723.53;6280303;22;20024;-76
2022/11/26 03:50:05;;;;;;;12.27;6.28;;;;;;;2.96;100.00;102727.72;6279724;22;20095;-76
2022/11/26 03:52:32;;;;;;;14.50;6.50;;;;;;;2.97;100.00;102737.13;6280396;22;20066;-76
2022/11/26 03:54:58;;;;;;;25.83;7.15;;;;;;;2.99;100.00;102740.19;6279951;22;20172;-76
2022/11/26 03:57:24;;;;;;;18.63;7.32;;;;;;;3.00;100.00;102736.44;6279506;22;20148;-76
2022/11/26 03:59:51;;;;;;;12.25;6.28;;;;;;;2.99;100.00;102731.53;6280383;22;20509;-77
2022/11/26 04:02:17;;;;;;;10.48;6.38;;;;;;;2.99;100.00;102747.31;6280173;22;20039;-77
2022/11/26 04:04:44;;;;;;;17.42;6.88;;;;;;;2.97;100.00;102745.03;6253105;22;20038;-77
2022/11/26 04:07:10;;;;;;;16.13;6.55;;;;;;;2.97;100.00;102745.03;6279019;22;20030;-77
2022/11/26 04:09:37;;;;;;;20.92;6.95;;;;;;;2.98;100.00;102735.25;6280545;22;20094;-77
2022/11/26 04:12:03;;;;;;;11.60;6.47;;;;;;;2.98;100.00;102740.53;6279097;22;20074;-78
2022/11/26 04:14:30;;;;;;;9.52;6.10;;;;;;;2.99;100.00;102742.81;6280529;22;20087;-76
2022/11/26 04:16:56;;;;;;;13.00;6.80;;;;;;;3.01;100.00;102748.50;6280073;22;20016;-76
2022/11/26 04:19:23;;;;;;;15.02;6.88;;;;;;;3.00;100.00;102749.63;6252540;22;20071;-76
2022/11/26 04:21:49;;;;;;;13.13;6.30;;;;;;;3.00;100.00;102746.97;6253395;22;20016;-78
2022/11/26 04:24:16;;;;;;;11.38;6.28;;;;;;;3.00;100.00;102749.63;6280098;22;20016;-76
2022/11/26 04:26:43;;;;;;;17.45;6.47;;;;;;;2.99;100.00;102747.31;6279662;22;20020;-76
2022/11/26 04:29:09;;;;;;;13.27;6.53;;;;;;;2.98;100.00;102753.69;6279689;22;20366;-77
2022/11/26 04:31:36;;;;;;;17.08;6.93;;;;;;;2.98;100.00;102758.94;6280358;22;20016;-78
2022/11/26 04:34:02;;;;;;;23.17;6.93;;;;;;;2.96;100.00;102763.78;6279475;22;20023;-76
2022/11/26 04:36:29;;;;;;;13.43;6.55;;;;;;;2.95;100.00;102770.91;6280169;22;20024;-78
2022/11/26 04:38:57;;;;;;;13.60;6.38;;;;;;;2.94;100.00;102771.25;6279813;22;20036;-79
2022/11/26 04:41:24;;;;;;;15.25;7.15;;;;;;;2.93;100.00;102765.22;6278989;22;20012;-77
2022/11/26 04:43:50;;;;;;;13.85;7.00;;;;;;;2.92;100.00;102762.91;6280050;22;20409;-77
2022/11/26 04:46:17;;;;;;;23.17;7.00;;;;;;;2.91;100.00;102754.25;6279837;22;20698;-77
2022/11/26 04:48:43;;;;;;;16.08;7.50;;;;;;;2.91;100.00;102764.78;6280053;22;20040;-76
2022/11/26 04:51:10;;;;;;;19.33;6.88;;;;;;;2.89;100.00;102764.34;6279250;22;20082;-76
2022/11/26 04:53:36;;;;;;;10.88;6.70;;;;;;;2.87;100.00;102758.66;6280051;22;20048;-77
2022/11/26 04:56:03;;;;;;;19.42;7.45;;;;;;;2.89;100.00;102767.00;6278319;22;20119;-76
2022/11/26 04:58:29;;;;;;;18.77;6.95;;;;;;;2.88;100.00;102760.19;6279856;22;20094;-76
2022/11/26 05:00:55;;;;;;;17.52;7.57;;;;;;;2.88;100.00;102760.19;6279287;22;20179;-76
2022/11/26 05:03:22;;;;;;;16.05;7.65;;;;;;;2.88;100.00;102762.06;6279484;22;20016;-76
2022/11/26 05:05:48;;;;;;;17.35;7.13;;;;;;;2.85;100.00;102760.88;6279568;22;20468;-76
2022/11/26 05:08:15;;;;;;;10.60;7.18;;;;;;;2.84;100.00;102763.84;6279168;22;20035;-76
2022/11/26 05:10:41;;;;;;;13.77;7.32;;;;;;;2.84;100.00;102766.47;6279073;22;20023;-77
2022/11/26 05:13:08;;;;;;;13.13;7.57;;;;;;;2.82;100.00;102769.44;6278803;22;20528;-76
2022/11/26 05:15:34;;;;;;;14.35;7.65;;;;;;;2.81;100.00;102770.53;6279680;22;20024;-76
2022/11/26 05:18:02;;;;;;;17.25;7.68;;;;;;;2.81;100.00;102775.78;6252357;22;20476;-76
2022/11/26 05:20:28;;;;;;;20.00;7.22;;;;;;;2.80;100.00;102771.63;6280990;22;20047;-76
2022/11/26 05:22:54;;;;;;;18.45;8.10;;;;;;;2.81;100.00;102775.78;6280525;22;20013;-77
2022/11/26 05:25:21;;;;;;;15.90;8.23;;;;;;;2.81;100.00;102778.41;6280355;22;20710;-76
2022/11/26 05:27:47;;;;;;;24.15;8.45;;;;;;;2.83;100.00;102780.72;6281211;22;20016;-76
2022/11/26 05:30:14;;;;;;;21.50;8.52;;;;;;;2.83;100.00;102792.00;6280430;22;20019;-76
2022/11/26 05:32:41;;;;;;;12.52;8.30;;;;;;;2.81;100.00;102794.22;6281041;22;20016;-76
2022/11/26 05:35:07;;;;;;;18.45;8.30;;;;;;;2.78;100.00;102794.13;6253221;22;20516;-77
2022/11/26 05:37:34;;;;;;;14.20;7.65;;;;;;;2.77;100.00;102803.91;6281670;22;20016;-77
2022/11/26 05:40:00;;;;;;;20.42;8.80;;;;;;;2.76;100.00;102793.72;6280784;22;20027;-77
2022/11/26 05:42:27;;;;;;;12.98;7.72;;;;;;;2.76;100.00;102804.22;6281140;22;20016;-77
2022/11/26 05:44:53;;;;;;;20.55;7.78;;;;;;;2.77;100.00;102803.13;6280178;22;20157;-77
2022/11/26 05:47:20;;;;;;;20.83;8.63;;;;;;;2.79;100.00;102812.22;6280658;22;20026;-77
2022/11/26 05:49:46;;;;;;;17.05;8.35;;;;;;;2.77;100.00;102809.16;6280602;22;20079;-78
2022/11/26 05:52:13;;;;;;;21.92;9.38;;;;;;;2.76;100.00;102810.25;6280688;22;20408;-78
2022/11/26 05:54:39;;;;;;;19.83;8.63;;;;;;;2.77;100.00;102808.38;6281475;22;20087;-77
2022/11/26 05:57:06;;;;;;;23.25;8.70;;;;;;;2.79;100.00;102803.56;6281347;22;20099;-77
2022/11/26 05:59:32;;;;;;;32.65;9.10;;;;;;;2.78;100.00;102805.44;6281892;22;20036;-78
2022/11/26 06:01:59;;;;;;;17.85;8.23;;;;;;;2.79;100.00;102808.81;6281572;22;20066;-78
2022/11/26 06:04:26;;;;;;;22.95;8.52;;;;;;;2.78;100.00;102800.16;6282336;22;20054;-77
2022/11/26 06:06:52;;;;;;;19.25;8.25;;;;;;;2.80;100.00;102818.97;6282836;22;20023;-78
2022/11/26 06:09:19;;;;;;;14.38;9.00;;;;;;;2.80;100.00;102813.72;6281922;22;20099;-78
2022/11/26 06:11:45;;;;;;;23.50;9.40;;;;;;;2.84;100.00;102816.44;6281565;22;20091;-78
2022/11/26 06:14:11;;;;;;;25.20;9.18;;;;;;;2.86;100.00;102808.97;6281657;22;20021;-78
2022/11/26 06:16:38;;;;;;;18.33;9.25;;;;;;;2.91;100.00;102806.13;6281659;22;20090;-78
2022/11/26 06:19:04;;;;;;;23.13;9.55;;;;;;;2.97;100.00;102818.69;6281880;22;20012;-78
2022/11/26 06:21:31;;;;;;;21.55;9.18;;;;;;;2.97;100.00;102816.06;6282746;22;20022;-78
2022/11/26 06:23:57;;;;;;;22.70;9.18;;;;;;;2.95;100.00;102818.25;6282462;22;20095;-78
2022/11/26 06:26:25;;;;;;;19.73;9.98;;;;;;;2.93;100.00;102814.44;6282672;22;20019;-78
2022/11/26 06:28:51;;;;;;;19.58;9.18;;;;;;;2.90;100.00;102823.00;6282751;22;20445;-78
2022/11/26 06:31:18;;;;;;;21.85;9.68;;;;;;;2.89;100.00;102829.38;6282613;22;20022;-78
2022/11/26 06:33:45;;;;;;;24.50;8.68;;;;;;;2.87;100.00;102821.03;6282625;22;20020;-78
2022/11/26 06:36:11;;;;;;;31.80;10.18;;;;;;;2.85;100.00;102831.13;6282479;22;20018;-78
2022/11/26 06:38:38;;;;;;;23.58;9.65;;;;;;;2.85;100.00;102825.88;6282122;22;20016;-78
2022/11/26 06:41:06;;;;;;;19.80;9.02;;;;;;;2.84;100.00;102827.72;6282205;22;20480;-81
2022/11/26 06:43:33;;;;;;;16.85;8.68;;;;;;;2.83;100.00;102830.69;6255191;22;20103;-79
2022/11/26 06:46:04;;;;;;;21.75;9.60;;;;;;;2.85;100.00;102831.91;6282512;22;20450;-81
2022/11/26 06:48:31;;;;;;;17.27;9.40;;;;;;;2.87;100.00;102836.81;6255329;22;20097;-79
2022/11/26 06:51:03;;;;;;;18.50;8.77;;;;;;;2.89;100.00;102839.88;6282124;22;20017;-77
2022/11/26 06:53:30;;;;;;;26.85;9.93;;;;;;;2.89;100.00;102850.41;6281792;22;20123;-78
2022/11/26 06:56:06;;;;;;;32.67;9.63;;;;;;;2.89;100.00;102845.91;6282172;22;20522;-78
2022/11/26 06:58:33;;;;;;;23.67;10.13;;;;;;;2.91;100.00;102854.25;6282169;22;20429;-78
2022/11/26 07:00:59;;;;;;;28.13;10.38;;;;;;;2.92;100.00;102847.09;6281979;22;20039;-77
2022/11/26 07:03:25;;;;;;;21.58;10.10;;;;;;;2.93;100.00;102851.28;6281864;22;20024;-80
2022/11/26 07:05:58;;;;;;;20.20;10.25;;;;;;;2.95;100.00;102857.72;6281513;22;20016;-78
2022/11/26 07:08:25;;;;;;;21.48;9.25;;;;;;;2.98;100.00;102849.16;6282208;22;20434;-78
2022/11/26 07:10:51;;;;;;;19.88;9.80;;;;;;;2.99;100.00;102848.06;6282278;22;20076;-78
2022/11/26 07:13:18;;;;;;;17.10;10.05;;;;;;;3.01;100.00;102853.00;6281950;22;20486;-78
2022/11/26 07:15:44;;;;;;;20.60;10.15;;;;;;;3.02;100.00;102851.91;6281544;22;20062;-79
2022/11/26 07:18:11;;;;;;;24.67;10.70;;;;;;;3.05;100.00;102853.09;6282446;22;20016;-79
2022/11/26 07:20:37;;;;;;;29.40;11.15;;;;;;;3.09;100.00;102852.09;6281860;22;20016;-79
2022/11/26 07:23:04;;;;;;;26.65;11.02;;;;;;;3.11;100.00;102863.03;6282557;22;20051;-79
2022/11/26 07:25:30;;;;;;;19.63;10.45;;;;;;;3.14;100.00;102866.88;6282464;22;20470;-77
2022/11/26 07:27:57;;;;;;;29.48;10.98;;;;;;;3.16;100.00;102867.31;6282367;22;20012;-79
2022/11/26 07:30:24;;;;;;;23.15;10.60;;;;;;;3.19;100.00;102874.53;6282117;22;20079;-78
2022/11/26 07:32:50;;;;;;;17.25;9.73;;;;;;;3.23;100.00;102878.00;6282452;22;20027;-78
2022/11/26 07:35:17;;;;;;;19.83;10.68;;;;;;;3.23;100.00;102876.13;6281553;22;20020;-77
2022/11/26 07:37:43;;;;;;;21.95;9.43;;;;;;;3.23;100.00;102881.38;6282323;22;20016;-76
2022/11/26 07:40:10;;;;;;;19.25;10.25;;;;;;;3.26;100.00;102872.81;6282300;22;20082;-77
2022/11/26 07:42:37;;;;;;;23.63;10.23;;;;;;;3.31;100.00;102883.13;6281173;22;20066;-78
2022/11/26 07:45:03;;;;;;;22.95;10.15;;;;;;;3.33;100.00;102883.53;6282365;22;20429;-76
2022/11/26 07:47:30;;;;;;;25.75;10.13;;;;;;;3.37;100.00;102881.00;6254816;22;20019;-77
2022/11/26 07:49:57;;;;;;;19.63;9.77;;;;;;;3.40;100.00;102876.94;6281573;22;20319;-77
2022/11/26 07:52:23;;;;;;;24.10;10.52;;;;;;;3.44;100.00;102877.78;6282105;22;20062;-74
2022/11/26 07:54:50;;;;;;;22.73;9.55;;;;;;;3.49;100.00;102883.56;6282186;22;20452;-74
2022/11/26 07:57:17;;;;;;;26.88;10.13;;;;;;;3.54;100.00;102878.06;6281771;22;20016;-77
2022/11/26 07:59:43;;;;;;;22.48;9.07;;;;;;;3.59;100.00;102879.69;6281650;22;20036;-77
2022/11/26 08:02:16;;;;;;;24.48;10.32;;;;;;;3.69;100.00;102879.16;6279794;22;20020;-77
2022/11/26 08:04:42;;;;;;;18.40;9.35;;;;;;;3.76;100.00;102871.44;6281122;22;20397;-77
2022/11/26 08:07:09;;;;;;;20.88;9.85;;;;;;;3.82;100.00;102879.84;6281978;22;20346;-78
2022/11/26 08:09:36;;;;;;;24.35;10.02;;;;;;;3.87;100.00;102876.94;6281937;22;20436;-77
2022/11/26 08:12:02;;;;;;;24.05;10.00;;;;;;;3.92;100.00;102884.59;6281441;22;20016;-77
2022/11/26 08:14:29;;;;;;;34.33;10.10;;;;;;;3.98;100.00;102877.97;6281588;22;20445;-75
2022/11/26 08:16:56;;;;;;;23.25;9.88;;;;;;;4.05;100.00;102885.25;6281695;22;20020;-74
2022/11/26 08:19:23;;;;;;;25.63;9.55;;;;;;;4.13;100.00;102879.03;6280917;22;20016;-75
2022/11/26 08:21:50;;;;;;;23.80;10.43;;;;;;;4.20;100.00;102893.16;6281451;22;20464;-77
2022/11/26 08:24:18;;;;;;;21.02;9.70;;;;;;;4.22;100.00;102901.47;6281802;22;20021;-79
2022/11/26 08:26:45;;;;;;;15.50;8.88;;;;;;;4.28;100.00;102901.97;6281631;22;20091;-78
2022/11/26 08:29:12;;;;;;;23.95;9.07;;;;;;;4.31;100.00;102902.06;6281598;22;20087;-78
2022/11/26 08:31:42;;;;;;;20.88;9.57;;;;;;;4.35;100.00;102896.88;6281698;22;20153;-78
2022/11/26 08:34:14;;;;;;;14.65;8.75;;;;;;;4.40;100.00;102903.75;6280871;22;20017;-78
2022/11/26 08:36:40;;;;;;;20.27;10.23;;;;;;;4.44;100.00;102904.56;6281515;22;20323;-77
2022/11/26 08:39:10;;;;;;;24.08;8.95;;;;;;;4.49;100.00;102907.72;6281450;22;20048;-77
2022/11/26 08:41:37;;;;;;;24.70;9.05;;;;;;;4.52;100.00;102907.03;6281089;22;20096;-77
2022/11/26 08:44:03;;;;;;;24.38;9.82;;;;;;;4.56;100.00;102901.81;6281686;22;20016;-76
2022/11/26 08:46:34;;;;;;;15.98;8.20;;;;;;;4.61;100.00;102901.56;6281469;22;20441;-78
2022/11/26 08:49:01;;;;;;;16.10;8.30;;;;;;;4.64;100.00;102896.34;6282106;22;20012;-79
2022/11/26 08:51:27;;;;;;;21.92;9.35;;;;;;;4.67;100.00;102893.03;6281423;22;20095;-78
2022/11/26 08:53:54;;;;;;;23.63;9.00;;;;;;;4.70;100.00;102902.13;6282417;22;20512;-77
2022/11/26 08:56:20;;;;;;;18.52;8.88;;;;;;;4.73;100.00;102898.78;6282585;22;20017;-76
2022/11/26 08:58:50;;;;;;;21.23;8.95;;;;;;;4.77;100.00;102898.88;6282690;22;20012;-75
2022/11/26 09:01:23;;;;;;;24.30;9.20;;;;;;;4.80;100.00;102900.81;6282822;22;20028;-76
2022/11/26 09:03:51;;;;;;;18.85;8.48;;;;;;;4.85;100.00;102890.72;6255179;22;20468;-76
2022/11/26 09:06:19;;;;;;;24.75;10.00;;;;;;;4.91;100.00;102888.56;6254946;22;20083;-76
2022/11/26 09:11:35;;;;;;;21.95;8.85;;;;;;;5.01;100.00;102901.97;6282776;22;20123;-77
2022/11/26 09:14:01;;;;;;;21.25;8.48;;;;;;;5.07;100.00;102902.47;6282683;22;20012;-77
2022/11/26 09:16:28;;;;;;;24.20;9.23;;;;;;;5.11;100.00;102907.81;6282170;22;20020;-77
2022/11/26 09:18:55;;;;;;;25.27;8.65;;;;;;;5.17;100.00;102906.44;6282519;22;20016;-77
2022/11/26 09:21:21;;;;;;;17.08;7.95;;;;;;;5.21;100.00;102917.78;6282232;22;20140;-76
2022/11/26 09:23:48;;;;;;;19.52;8.55;;;;;;;5.26;100.00;102915.63;6282741;22;20084;-76
2022/11/26 09:26:15;;;;;;;22.27;8.50;;;;;;;5.30;100.00;102921.75;6282737;22;20016;-77
2022/11/26 09:28:41;;;;;;;33.05;8.75;;;;;;;5.38;100.00;102930.56;6282563;22;20434;-78
2022/11/26 09:31:07;;;;;;;21.73;8.57;;;;;;;5.44;100.00;102920.47;6282107;22;20032;-79
2022/11/26 09:33:34;;;;;;;20.83;8.13;;;;;;;5.48;100.00;102914.16;6255439;22;20024;-80
2022/11/26 09:36:12;;;;;;;18.92;8.32;;;;;;;5.53;100.00;102931.59;6282404;22;20020;-77
2022/11/26 09:38:39;;;;;;;20.92;8.52;;;;;;;5.60;100.00;102939.63;6255332;22;20024;-77
2022/11/26 09:41:42;;;;;;;19.58;8.68;;;;;;;5.65;100.00;102937.47;6282260;22;20040;-77
2022/11/26 09:44:24;;;;;;;16.88;8.82;;;;;;;5.71;100.00;102951.13;6282464;22;20032;-77
2022/11/26 09:47:02;;;;;;;26.00;8.20;;;;;;;5.75;100.00;102938.75;6254929;22;20016;-77
2022/11/26 09:49:44;;;;;;;20.75;7.50;;;;;;;5.80;100.00;102935.06;6282617;22;20017;-78
2022/11/26 09:52:16;;;;;;;22.33;8.15;;;;;;;5.84;100.00;102934.00;6282386;22;20017;-78
2022/11/26 09:54:44;;;;;;;20.52;8.10;;;;;;;5.88;100.00;102937.47;6282744;22;20012;-77
2022/11/26 09:57:38;;;;;;;14.85;7.72;;;;;;;5.95;100.00;102934.22;6282657;22;20020;-80
2022/11/26 10:00:14;;;;;;;24.10;8.45;;;;;;;6.00;100.00;102939.16;6281780;22;20095;-78
2022/11/26 10:02:41;;;;;;;18.60;7.18;;;;;;;6.03;100.00;102927.88;6282500;22;20071;-77
2022/11/26 10:05:11;;;;;;;23.45;7.75;;;;;;;6.08;100.00;102935.53;6281703;22;20087;-77
2022/11/26 10:08:18;;;;;;;20.65;8.25;;;;;;;6.16;100.00;102934.53;6282647;22;20417;-77
2022/11/26 10:10:55;;;;;;;28.50;8.20;;;;;;;6.21;100.00;102934.22;6282371;22;20498;-77
2022/11/26 10:13:39;;;;;;;18.42;7.85;;;;;;;6.27;100.00;102939.97;6281174;22;20020;-77
2022/11/26 10:16:28;;;;;;;23.25;8.68;;;;;;;6.34;100.00;102935.56;6280819;22;20438;-77
2022/11/26 10:19:07;;;;;;;21.38;7.45;;;;;;;6.42;100.00;102930.34;6281747;22;20016;-77
2022/11/26 10:21:48;;;;;;;16.23;7.75;;;;;;;6.45;100.00;102924.34;6255017;22;20418;-77
2022/11/26 10:24:37;;;;;;;23.08;7.82;;;;;;;6.51;100.00;102921.03;6282518;22;20020;-77
2022/11/26 10:27:13;;;;;;;24.48;7.53;;;;;;;6.55;100.00;102923.72;6282499;22;20040;-77
2022/11/26 10:29:48;;;;;;;23.42;8.63;;;;;;;6.60;100.00;102926.06;6281658;22;20106;-77
2022/11/26 10:32:20;;;;;;;20.25;7.50;;;;;;;6.63;100.00;102923.47;6282085;22;20012;-76
2022/11/26 10:34:52;;;;;;;18.10;7.32;;;;;;;6.69;100.00;102923.91;6282341;22;20070;-79
2022/11/26 10:37:21;;;;;;;24.83;9.00;;;;;;;6.73;100.00;102935.31;6255147;22;20058;-79
2022/11/26 10:39:52;;;;;;;20.90;9.13;;;;;;;6.77;100.00;102935.34;6282598;22;20020;-79
2022/11/26 10:42:26;;;;;;;19.45;8.95;;;;;;;6.82;100.00;102932.38;6281995;22;20020;-79
2022/11/26 10:44:53;;;;;;;21.55;9.23;;;;;;;6.87;100.00;102935.47;6281662;22;20020;-79
2022/11/26 10:47:25;;;;;;;16.33;8.70;;;;;;;6.93;100.00;102928.72;6282325;22;20012;-79
2022/11/26 10:49:52;;;;;;;;;;;;;;;6.97;100.00;102931.41;6282683;22;20023;-79
2022/11/26 10:52:24;;;;;;;18.40;7.18;;;;;;;7.01;100.00;102927.69;6282101;22;19920;-76
2022/11/26 10:55:10;;;;;;;;;;;;;;;7.11;100.00;102918.34;6282921;22;20070;-75
2022/11/26 10:57:42;;;;;;;24.88;7.70;;;;;;;7.21;100.00;102919.56;6282190;22;19927;-74
2022/11/26 11:00:43;;;;;;;20.40;7.13;;;;;;;7.30;100.00;102915.50;6282071;22;20012;-75
2022/11/26 11:03:20;;;;;;;18.30;7.88;;;;;;;7.40;100.00;102916.72;6282129;22;20115;-74
2022/11/26 11:06:42;;;;;;;18.50;8.13;;;;;;;7.52;100.00;102921.00;6255582;22;20051;-75
2022/11/26 11:09:29;;;;;;;23.67;7.18;;;;;;;7.59;100.00;102924.50;6282408;22;20025;-75
2022/11/26 11:12:16;;;;;;;26.35;7.05;;;;;;;7.67;100.00;102918.09;6282267;22;20020;-76
2022/11/26 11:14:44;;;;;;;19.27;7.13;;;;;;;7.70;100.00;102917.38;6282186;22;20012;-76
2022/11/26 11:17:29;;;;;;;18.92;6.65;;;;;;;7.70;100.00;102906.00;6254300;22;20027;-77
2022/11/26 11:20:17;;;;;;;22.80;7.35;;;;;;;7.69;100.00;102907.91;6281940;22;20083;-76
2022/11/26 11:22:44;;;;;;;14.75;6.40;;;;;;;7.70;100.00;102906.00;6261137;22;20016;-76
2022/11/26 11:25:21;;;;;;;19.65;7.03;;;;;;;7.72;100.00;102906.41;6282177;22;20012;-76
2022/11/26 11:27:49;;;;;;;30.45;7.43;;;;;;;7.70;100.00;102906.78;6281526;22;20024;-76
2022/11/26 11:30:26;;;;;;;21.70;7.38;;;;;;;7.71;100.00;102910.19;6281604;22;20461;-76
2022/11/26 11:32:56;;;;;;;21.60;8.00;;;;;;;7.72;100.00;102905.66;6282086;22;20095;-76
2022/11/26 11:35:29;;;;;;;16.13;7.07;;;;;;;7.74;100.00;102911.34;6281974;22;20012;-77